Time;durP1;ratioP1;P1;durP2;ratioP2;P2;SDS_P1;SDS_P2;PMS_P1;PMS_P2;Temp;Humidity;BMP_temperature;BMP_pressure;BME280_temperature;BME280_humidity;BME280_pressure;Samples;Min_cycle;Max_cycle;Signal;HPM_P1;HPM_P2
2021/07/23 00:01:26;;;;;;;23.33;20.83;;;24.60;93.40;;;;;;3595575;40;20452;-56
2021/07/23 00:03:55;;;;;;;21.90;20.20;;;24.50;93.30;;;;;;3595440;40;20457;-56
2021/07/23 00:06:22;;;;;;;21.50;19.70;;;24.60;93.40;;;;;;3595522;40;20865;-56
2021/07/23 00:08:51;;;;;;;20.90;19.10;;;24.60;93.40;;;;;;3595664;40;20453;-56
2021/07/23 00:11:23;;;;;;;22.10;20.40;;;24.50;93.30;;;;;;3595740;40;20461;-56
2021/07/23 00:13:50;;;;;;;22.33;20.30;;;24.60;93.40;;;;;;3585529;40;20458;-55
2021/07/23 00:16:19;;;;;;;22.43;20.63;;;24.60;93.40;;;;;;3583881;40;20872;-56
2021/07/23 00:18:46;;;;;;;21.97;20.27;;;24.60;93.40;;;;;;3583657;40;20474;-56
2021/07/23 00:21:13;;;;;;;22.33;20.43;;;24.60;93.40;;;;;;3588710;40;21151;-56
2021/07/23 00:23:40;;;;;;;21.77;19.97;;;24.60;93.40;;;;;;3594928;40;20472;-56
2021/07/23 00:26:10;;;;;;;22.77;20.60;;;24.50;93.30;;;;;;3583596;40;20454;-56
2021/07/23 00:28:39;;;;;;;23.53;21.53;;;24.50;93.30;;;;;;3595344;40;20449;-54
2021/07/23 00:31:06;;;;;;;22.43;20.50;;;24.60;93.30;;;;;;3587499;40;20466;-55
2021/07/23 00:33:36;;;;;;;21.20;19.37;;;24.50;93.30;;;;;;3585483;40;20478;-55
2021/07/23 00:36:04;;;;;;;20.77;19.17;;;24.50;93.30;;;;;;3585115;40;20462;-55
2021/07/23 00:38:32;;;;;;;20.47;18.90;;;24.50;93.30;;;;;;3584607;40;20547;-54
2021/07/23 00:41:00;;;;;;;21.37;19.67;;;24.50;93.30;;;;;;3591771;40;20466;-55
2021/07/23 00:43:28;;;;;;;21.70;20.07;;;24.50;93.30;;;;;;3585311;40;20453;-56
2021/07/23 00:45:55;;;;;;;20.60;18.90;;;24.50;93.20;;;;;;3585824;40;20445;-55
2021/07/23 00:48:24;;;;;;;20.97;19.20;;;24.50;93.20;;;;;;3577734;40;20482;-56
2021/07/23 00:50:52;;;;;;;22.60;20.63;;;24.50;93.20;;;;;;3590447;40;20496;-53
2021/07/23 00:53:21;;;;;;;20.47;18.87;;;24.50;93.20;;;;;;3584334;40;20465;-52
2021/07/23 00:55:54;;;;;;;20.60;19.00;;;24.50;93.20;;;;;;3593546;40;20501;-53
2021/07/23 00:58:24;;;;;;;21.43;19.20;;;24.50;93.20;;;;;;3593312;40;20758;-56
2021/07/23 01:00:54;;;;;;;20.53;18.73;;;24.50;93.20;;;;;;3583890;40;20488;-54
2021/07/23 01:03:32;;;;;;;20.90;19.30;;;24.50;93.20;;;;;;3593961;40;20464;-55
2021/07/23 01:06:06;;;;;;;21.60;19.90;;;24.50;93.10;;;;;;3593899;40;20457;-56
2021/07/23 01:08:34;;;;;;;21.23;19.63;;;24.50;93.10;;;;;;3587101;40;20723;-55
2021/07/23 01:11:03;;;;;;;20.83;19.33;;;24.50;93.10;;;;;;3586014;40;21061;-54
2021/07/23 01:13:51;;;;;;;21.57;19.47;;;24.50;93.10;;;;;;3595330;40;20457;-54
2021/07/23 01:16:22;;;;;;;22.33;20.63;;;24.50;93.10;;;;;;3577312;40;20556;-56
2021/07/23 01:18:52;;;;;;;19.73;18.23;;;24.50;93.10;;;;;;3585653;40;20466;-55
2021/07/23 01:21:23;;;;;;;19.60;18.20;;;24.50;93.10;;;;;;3582794;40;20482;-55
2021/07/23 01:23:53;;;;;;;20.47;18.67;;;24.50;93.10;;;;;;3575937;40;20486;-55
2021/07/23 01:26:42;;;;;;;20.43;18.90;;;24.50;93.10;;;;;;3585142;40;20478;-56
2021/07/23 01:29:15;;;;;;;19.03;17.73;;;24.50;93.10;;;;;;3575146;40;20504;-55
2021/07/23 01:31:44;;;;;;;21.17;19.43;;;24.50;93.10;;;;;;3584445;40;20462;-55
2021/07/23 01:34:13;;;;;;;20.10;18.50;;;24.50;93.10;;;;;;3576145;40;20473;-56
2021/07/23 01:36:41;;;;;;;20.93;19.30;;;24.50;93.00;;;;;;3575601;40;20845;-55
2021/07/23 01:39:18;;;;;;;21.50;19.80;;;24.50;93.00;;;;;;3569655;40;20482;-56
2021/07/23 01:41:45;;;;;;;19.20;17.90;;;24.50;93.00;;;;;;3567858;40;20779;-55
2021/07/23 01:44:13;;;;;;;19.60;18.20;;;24.40;92.90;;;;;;3574063;40;20719;-54
2021/07/23 01:46:41;;;;;;;20.77;19.00;;;24.40;93.00;;;;;;3575617;40;20970;-56
2021/07/23 01:49:10;;;;;;;19.47;18.07;;;24.50;93.00;;;;;;3566730;40;20493;-53
2021/07/23 01:51:40;;;;;;;22.03;20.20;;;24.50;93.00;;;;;;3575967;40;20536;-56
2021/07/23 01:54:30;;;;;;;22.37;20.47;;;24.40;92.90;;;;;;3574930;40;20485;-55
2021/07/23 01:57:01;;;;;;;19.70;18.10;;;24.40;92.90;;;;;;3575462;40;20545;-55
2021/07/23 01:59:31;;;;;;;21.00;19.40;;;24.40;92.90;;;;;;3566707;40;20481;-55
2021/07/23 02:02:01;;;;;;;19.90;18.30;;;24.40;92.90;;;;;;3569045;40;20456;-52
2021/07/23 02:04:40;;;;;;;19.67;18.27;;;24.40;92.90;;;;;;3564750;40;20466;-56
2021/07/23 02:07:07;;;;;;;20.00;18.50;;;24.40;92.90;;;;;;3577970;40;20486;-54
2021/07/23 02:09:36;;;;;;;21.43;19.83;;;24.40;92.90;;;;;;3584758;40;20484;-55
2021/07/23 02:12:05;;;;;;;20.43;18.73;;;24.40;92.80;;;;;;3567973;40;20467;-55
2021/07/23 02:15:00;;;;;;;20.27;18.60;;;24.40;92.80;;;;;;3571494;40;20487;-53
2021/07/23 02:17:29;;;;;;;20.93;19.13;;;24.40;92.80;;;;;;3572243;40;20458;-55
2021/07/23 02:19:59;;;;;;;20.67;19.07;;;24.40;92.80;;;;;;3576165;40;20448;-56
2021/07/23 02:22:30;;;;;;;21.13;19.53;;;24.40;92.80;;;;;;3575841;40;20462;-56
2021/07/23 02:25:00;;;;;;;21.60;19.53;;;24.40;92.80;;;;;;3585462;40;20535;-55
2021/07/23 02:27:33;;;;;;;22.03;19.70;;;24.40;92.70;;;;;;3575540;40;20963;-55
2021/07/23 02:30:01;;;;;;;20.00;18.50;;;24.40;92.70;;;;;;3575734;40;20887;-55
2021/07/23 02:32:36;;;;;;;20.40;18.90;;;24.40;92.80;;;;;;3570769;40;20788;-52
2021/07/23 02:35:04;;;;;;;19.10;17.70;;;24.40;92.70;;;;;;3583469;40;20476;-52
2021/07/23 02:37:50;;;;;;;19.70;18.10;;;24.40;92.70;;;;;;3574896;40;20531;-55
2021/07/23 02:40:22;;;;;;;19.97;18.53;;;24.40;93.00;;;;;;3567081;40;20531;-55
2021/07/23 02:42:59;;;;;;;20.77;19.13;;;24.40;92.70;;;;;;3572656;40;20488;-56
2021/07/23 02:45:27;;;;;;;20.93;19.23;;;24.40;92.60;;;;;;3573679;40;20727;-53
2021/07/23 02:47:56;;;;;;;21.70;20.07;;;24.40;92.60;;;;;;3573747;40;20463;-54
2021/07/23 02:50:24;;;;;;;21.17;19.57;;;24.40;92.50;;;;;;3576628;40;20487;-54
2021/07/23 02:52:58;;;;;;;20.83;19.27;;;24.40;92.50;;;;;;3576292;40;20830;-56
2021/07/23 02:55:28;;;;;;;20.47;18.77;;;24.40;92.50;;;;;;3576647;40;20552;-55
2021/07/23 02:58:00;;;;;;;20.67;19.17;;;24.40;92.50;;;;;;3576058;40;20564;-53
2021/07/23 03:00:29;;;;;;;21.10;19.20;;;24.40;92.50;;;;;;3575728;40;20462;-55
2021/07/23 03:03:04;;;;;;;19.13;17.63;;;24.40;92.50;;;;;;3574859;40;20510;-54
2021/07/23 03:05:36;;;;;;;21.70;20.10;;;24.40;92.40;;;;;;3575906;40;20455;-55
2021/07/23 03:08:09;;;;;;;20.80;19.17;;;24.40;92.40;;;;;;3573801;40;20467;-56
2021/07/23 03:10:46;;;;;;;20.00;18.57;;;24.40;92.40;;;;;;3576024;40;20449;-55
2021/07/23 03:13:15;;;;;;;22.37;20.40;;;24.40;92.40;;;;;;3567343;40;20450;-56
2021/07/23 03:15:43;;;;;;;19.60;18.20;;;24.40;92.30;;;;;;3576379;40;21123;-54
2021/07/23 03:18:15;;;;;;;21.07;19.27;;;24.40;92.30;;;;;;3577681;40;20469;-53
2021/07/23 03:20:44;;;;;;;18.33;16.90;;;24.40;92.30;;;;;;3584919;40;20502;-56
2021/07/23 03:23:13;;;;;;;20.40;19.00;;;24.40;92.30;;;;;;3579789;40;20458;-55
2021/07/23 03:25:50;;;;;;;20.43;18.93;;;24.30;92.30;;;;;;3587672;40;20896;-54
2021/07/23 03:28:26;;;;;;;21.10;19.70;;;24.30;92.20;;;;;;3584843;40;21109;-53
2021/07/23 03:31:16;;;;;;;20.43;18.80;;;24.30;92.20;;;;;;3570697;40;20478;-55
2021/07/23 03:33:48;;;;;;;19.97;18.37;;;24.30;92.20;;;;;;3578665;40;20473;-54
2021/07/23 03:36:21;;;;;;;21.37;19.60;;;24.30;92.20;;;;;;3594875;40;20591;-55
2021/07/23 03:38:50;;;;;;;20.60;18.90;;;24.30;92.20;;;;;;3585254;40;20473;-56
2021/07/23 03:41:21;;;;;;;19.93;18.33;;;24.30;92.20;;;;;;3578668;40;20503;-53
2021/07/23 03:43:50;;;;;;;20.47;18.90;;;24.30;92.20;;;;;;3586086;40;20486;-56
2021/07/23 03:46:30;;;;;;;20.90;19.30;;;24.30;92.10;;;;;;3577520;40;20586;-54
2021/07/23 03:48:59;;;;;;;21.57;20.17;;;24.30;92.10;;;;;;3586890;40;20465;-54
2021/07/23 03:51:58;;;;;;;21.37;19.97;;;24.30;92.10;;;;;;3593389;40;20477;-56
2021/07/23 03:54:30;;;;;;;20.27;18.70;;;24.30;92.10;;;;;;3576662;40;20497;-55
2021/07/23 03:56:59;;;;;;;22.37;20.20;;;24.30;92.10;;;;;;3585387;40;20485;-53
2021/07/23 03:59:29;;;;;;;20.93;19.10;;;24.30;92.10;;;;;;3593755;39;20462;-56
2021/07/23 04:02:03;;;;;;;19.77;18.27;;;24.30;92.00;;;;;;3594734;40;20458;-55
2021/07/23 04:04:32;;;;;;;21.63;19.83;;;24.20;91.90;;;;;;3594182;40;20480;-53
2021/07/23 04:07:01;;;;;;;20.97;19.40;;;24.20;92.00;;;;;;3594310;40;20463;-52
2021/07/23 04:09:31;;;;;;;21.90;19.87;;;24.20;92.00;;;;;;3584842;40;20726;-54
2021/07/23 04:12:01;;;;;;;19.87;18.20;;;24.30;92.00;;;;;;3577030;40;20453;-56
2021/07/23 04:14:40;;;;;;;20.23;18.93;;;24.20;91.90;;;;;;3588477;40;20470;-56
2021/07/23 04:17:09;;;;;;;21.17;19.23;;;24.20;91.90;;;;;;3573591;40;20462;-55
2021/07/23 04:19:38;;;;;;;21.63;19.70;;;24.20;91.90;;;;;;3558027;40;20462;-53
2021/07/23 04:22:08;;;;;;;21.73;20.07;;;24.20;91.90;;;;;;3592204;40;20776;-53
2021/07/23 04:24:46;;;;;;;21.60;19.80;;;24.20;91.90;;;;;;3587261;40;20487;-55
2021/07/23 04:27:15;;;;;;;21.07;19.57;;;24.20;91.90;;;;;;3574228;40;20510;-55
2021/07/23 04:30:05;;;;;;;20.43;18.83;;;24.20;91.90;;;;;;3583539;40;20545;-53
2021/07/23 04:32:52;;;;;;;22.40;20.80;;;24.20;91.90;;;;;;3584115;40;20493;-56
2021/07/23 04:35:20;;;;;;;20.43;18.93;;;24.20;91.80;;;;;;3583496;40;20466;-54
2021/07/23 04:37:49;;;;;;;23.23;20.30;;;24.20;91.80;;;;;;3583075;40;20555;-56
2021/07/23 04:40:24;;;;;;;21.33;19.57;;;24.20;91.80;;;;;;3581871;40;20520;-56
2021/07/23 04:42:53;;;;;;;21.57;19.87;;;24.20;91.80;;;;;;3573195;40;20483;-54
2021/07/23 04:45:20;;;;;;;22.00;20.33;;;24.20;91.70;;;;;;3565313;40;20459;-54
2021/07/23 04:48:04;;;;;;;21.73;20.03;;;24.20;91.70;;;;;;3571408;40;20474;-53
2021/07/23 04:50:48;;;;;;;22.37;20.60;;;24.20;91.70;;;;;;3572282;40;20551;-53
2021/07/23 04:53:35;;;;;;;21.57;19.57;;;24.20;91.70;;;;;;3572552;40;20500;-55
2021/07/23 04:56:37;;;;;;;21.93;20.37;;;24.20;91.70;;;;;;3559577;40;20482;-55
2021/07/23 04:59:07;;;;;;;20.63;18.93;;;24.20;91.60;;;;;;3563520;40;20455;-55
2021/07/23 05:01:37;;;;;;;22.27;20.57;;;24.20;91.70;;;;;;3579066;40;20454;-52
2021/07/23 05:04:07;;;;;;;21.97;20.17;;;24.20;91.60;;;;;;3581036;40;20473;-54
2021/07/23 05:06:38;;;;;;;20.53;18.87;;;24.20;91.60;;;;;;3571732;40;20686;-55
2021/07/23 05:09:07;;;;;;;20.33;18.80;;;24.20;91.60;;;;;;3581219;40;20442;-55
2021/07/23 05:11:39;;;;;;;21.70;19.87;;;24.20;91.60;;;;;;3561537;40;20471;-54
2021/07/23 05:14:08;;;;;;;22.80;21.03;;;24.20;91.60;;;;;;3569770;40;20447;-52
2021/07/23 05:16:36;;;;;;;22.80;20.83;;;24.20;91.60;;;;;;3579499;40;20536;-54
2021/07/23 05:19:06;;;;;;;22.00;20.30;;;24.20;91.60;;;;;;3590603;40;20473;-54
2021/07/23 05:21:36;;;;;;;22.43;20.30;;;24.20;91.60;;;;;;3581156;40;20462;-55
2021/07/23 05:24:05;;;;;;;22.40;20.40;;;24.20;91.60;;;;;;3579928;40;20460;-55
2021/07/23 05:26:36;;;;;;;23.33;21.23;;;24.20;91.60;;;;;;3577724;40;20476;-55
2021/07/23 05:29:04;;;;;;;21.80;20.10;;;24.20;91.60;;;;;;3577798;40;20485;-56
2021/07/23 05:31:33;;;;;;;22.43;20.43;;;24.30;91.60;;;;;;3568797;40;20515;-54
2021/07/23 05:34:02;;;;;;;22.60;21.00;;;24.30;91.60;;;;;;3575532;40;20897;-54
2021/07/23 05:36:30;;;;;;;24.90;22.70;;;24.30;91.60;;;;;;3577390;40;20955;-55
2021/07/23 05:38:58;;;;;;;22.43;20.73;;;24.30;91.60;;;;;;3576180;40;21380;-54
2021/07/23 05:41:26;;;;;;;21.33;19.63;;;24.30;91.70;;;;;;3577838;40;20861;-54
2021/07/23 05:43:54;;;;;;;22.40;20.80;;;24.30;91.70;;;;;;3584458;40;20470;-56
2021/07/23 05:46:22;;;;;;;22.57;20.67;;;24.30;91.70;;;;;;3576623;40;20473;-56
2021/07/23 05:48:52;;;;;;;22.77;20.63;;;24.30;91.60;;;;;;3577608;40;20454;-55
2021/07/23 05:51:19;;;;;;;22.23;20.60;;;24.30;91.60;;;;;;3576282;40;20935;-56
2021/07/23 05:53:46;;;;;;;22.63;20.83;;;24.30;91.70;;;;;;3577234;40;20922;-56
2021/07/23 05:56:14;;;;;;;20.73;19.30;;;24.30;91.70;;;;;;3566567;40;20482;-56
2021/07/23 05:58:42;;;;;;;21.77;19.73;;;24.30;91.70;;;;;;3577559;40;20512;-54
2021/07/23 06:01:10;;;;;;;21.23;19.07;;;24.30;91.80;;;;;;3574803;40;20470;-56
2021/07/23 06:03:39;;;;;;;21.60;19.40;;;24.30;91.80;;;;;;3585881;40;20445;-54
2021/07/23 06:06:08;;;;;;;21.20;19.10;;;24.40;91.90;;;;;;3584711;40;20580;-56
2021/07/23 06:08:37;;;;;;;22.63;20.60;;;24.40;91.90;;;;;;3585549;40;20453;-54
2021/07/23 06:11:05;;;;;;;22.47;20.63;;;24.40;91.90;;;;;;3583103;40;20893;-53
2021/07/23 06:13:48;;;;;;;22.53;20.83;;;24.40;92.00;;;;;;3579944;40;20566;-53
2021/07/23 06:16:16;;;;;;;21.67;20.07;;;24.40;92.00;;;;;;3584036;40;20445;-55
2021/07/23 06:18:44;;;;;;;21.77;20.07;;;24.30;91.90;;;;;;3576884;40;20465;-54
2021/07/23 06:21:13;;;;;;;21.37;19.97;;;24.10;92.30;;;;;;3570232;40;20497;-56
2021/07/23 06:23:42;;;;;;;21.17;19.67;;;23.90;92.50;;;;;;3570324;40;20458;-53
2021/07/23 06:26:09;;;;;;;21.53;20.00;;;23.70;92.80;;;;;;3572332;40;20575;-56
2021/07/23 06:28:37;;;;;;;22.60;20.83;;;23.50;93.00;;;;;;3571054;40;20453;-55
2021/07/23 06:31:06;;;;;;;23.90;21.73;;;23.30;93.30;;;;;;3579639;40;20465;-56
2021/07/23 06:33:34;;;;;;;23.33;21.23;;;23.20;93.60;;;;;;3573368;40;20462;-57
2021/07/23 06:36:02;;;;;;;22.87;20.97;;;23.20;93.50;;;;;;3562116;40;20651;-55
2021/07/23 06:38:35;;;;;;;22.70;20.70;;;23.20;93.80;;;;;;3561297;40;20494;-54
2021/07/23 06:41:06;;;;;;;21.77;19.70;;;23.20;94.20;;;;;;3561415;40;20474;-55
2021/07/23 06:43:34;;;;;;;23.57;21.53;;;23.20;94.10;;;;;;3552058;40;20713;-55
2021/07/23 06:46:02;;;;;;;23.43;21.63;;;23.30;94.20;;;;;;3551324;40;20452;-56
2021/07/23 06:48:31;;;;;;;23.10;21.43;;;23.30;94.10;;;;;;3553802;40;20784;-55
2021/07/23 06:50:58;;;;;;;24.13;22.13;;;23.50;94.10;;;;;;3549594;40;20871;-57
2021/07/23 06:53:26;;;;;;;23.43;21.57;;;23.50;94.00;;;;;;3556383;40;20691;-58
2021/07/23 06:55:57;;;;;;;23.10;21.10;;;23.50;94.20;;;;;;3550177;40;21111;-56
2021/07/23 06:58:27;;;;;;;22.83;21.13;;;23.50;94.20;;;;;;3550313;40;20943;-61
2021/07/23 07:00:55;;;;;;;21.80;20.10;;;23.50;94.20;;;;;;3559224;40;20503;-61
2021/07/23 07:03:23;;;;;;;23.30;21.30;;;23.60;94.30;;;;;;3553124;40;20455;-61
2021/07/23 07:05:51;;;;;;;23.13;21.27;;;23.70;94.10;;;;;;3563875;40;20477;-61
2021/07/23 07:08:19;;;;;;;22.03;20.50;;;23.80;94.10;;;;;;3568018;40;20533;-60
2021/07/23 07:10:48;;;;;;;22.20;20.50;;;23.90;94.40;;;;;;3563531;40;20486;-60
2021/07/23 07:13:17;;;;;;;22.60;20.73;;;23.90;94.10;;;;;;3564888;40;21096;-61
2021/07/23 07:15:44;;;;;;;21.97;19.77;;;24.00;94.10;;;;;;3567637;40;20521;-61
2021/07/23 07:18:12;;;;;;;23.37;21.37;;;24.00;93.90;;;;;;3571135;40;20729;-61
2021/07/23 07:20:39;;;;;;;23.03;21.13;;;24.00;93.80;;;;;;3572520;40;20462;-61
2021/07/23 07:23:07;;;;;;;21.50;19.70;;;24.10;93.80;;;;;;3576584;40;20779;-61
2021/07/23 07:25:35;;;;;;;21.43;19.93;;;24.20;93.80;;;;;;3578348;40;20575;-61
2021/07/23 07:28:03;;;;;;;24.20;22.30;;;24.20;93.70;;;;;;3580533;40;20547;-61
2021/07/23 07:30:33;;;;;;;23.03;21.23;;;24.20;93.70;;;;;;3578471;40;20470;-61
2021/07/23 07:33:02;;;;;;;21.50;19.90;;;24.20;93.60;;;;;;3574196;40;20853;-61
2021/07/23 07:35:30;;;;;;;23.60;21.97;;;24.20;93.60;;;;;;3564135;40;21159;-61
2021/07/23 07:37:57;;;;;;;25.80;23.90;;;24.30;93.60;;;;;;3581344;40;20533;-61
2021/07/23 07:40:26;;;;;;;24.33;22.53;;;24.30;93.60;;;;;;3574276;40;20475;-61
2021/07/23 07:42:54;;;;;;;23.77;22.13;;;24.30;93.60;;;;;;3570176;40;20489;-59
2021/07/23 07:45:22;;;;;;;24.73;22.93;;;24.30;93.60;;;;;;3581160;40;20450;-61
2021/07/23 07:47:52;;;;;;;24.10;22.37;;;24.40;93.60;;;;;;3582295;40;21061;-61
2021/07/23 07:50:21;;;;;;;23.87;22.03;;;24.40;93.60;;;;;;3578067;40;21046;-61
2021/07/23 07:52:48;;;;;;;25.73;23.87;;;24.40;93.60;;;;;;3572238;40;20454;-60
2021/07/23 07:55:18;;;;;;;25.07;22.57;;;24.40;93.60;;;;;;3571325;40;20478;-61
2021/07/23 07:57:47;;;;;;;27.77;25.37;;;24.40;93.60;;;;;;3573284;40;20467;-61
2021/07/23 08:00:16;;;;;;;27.97;25.63;;;24.40;93.50;;;;;;3580809;40;21139;-61
2021/07/23 08:02:46;;;;;;;26.13;24.07;;;24.40;93.50;;;;;;3585287;40;20781;-61
2021/07/23 08:05:15;;;;;;;26.67;24.57;;;24.40;93.60;;;;;;3586878;40;20456;-61
2021/07/23 08:07:43;;;;;;;27.07;24.77;;;24.40;93.50;;;;;;3584630;40;20461;-61
2021/07/23 08:10:14;;;;;;;25.73;23.77;;;24.40;93.50;;;;;;3571445;40;20895;-61
2021/07/23 08:12:42;;;;;;;27.37;25.17;;;24.50;93.60;;;;;;3584390;40;20450;-60
2021/07/23 08:15:10;;;;;;;27.33;24.73;;;24.50;93.60;;;;;;3586956;40;20542;-61
2021/07/23 08:17:37;;;;;;;27.80;25.47;;;24.50;93.60;;;;;;3587633;40;20840;-61
2021/07/23 08:20:06;;;;;;;27.60;25.23;;;24.50;93.60;;;;;;3585046;40;20766;-61
2021/07/23 08:22:35;;;;;;;28.13;25.87;;;24.50;93.60;;;;;;3583644;40;20465;-61
2021/07/23 08:25:03;;;;;;;29.70;27.07;;;24.50;93.60;;;;;;3583572;40;20722;-61
2021/07/23 08:27:31;;;;;;;28.40;26.23;;;24.50;93.60;;;;;;3583654;40;20707;-61
2021/07/23 08:29:58;;;;;;;28.20;25.80;;;24.50;93.60;;;;;;3583630;40;20495;-61
2021/07/23 08:32:26;;;;;;;30.07;27.37;;;24.50;93.60;;;;;;3583447;40;20557;-61
2021/07/23 08:34:57;;;;;;;30.67;27.97;;;24.50;93.60;;;;;;3584276;40;20785;-61
2021/07/23 08:37:24;;;;;;;30.57;27.90;;;24.50;93.60;;;;;;3565849;40;20485;-58
2021/07/23 08:39:53;;;;;;;29.73;26.93;;;24.50;93.60;;;;;;3573750;40;20491;-57
2021/07/23 08:42:25;;;;;;;30.40;27.80;;;24.50;93.60;;;;;;3574416;40;20514;-58
2021/07/23 08:44:53;;;;;;;28.60;26.40;;;24.50;93.60;;;;;;3573347;40;20501;-58
2021/07/23 08:47:21;;;;;;;31.00;28.30;;;24.50;93.60;;;;;;3574943;39;20483;-56
2021/07/23 08:49:48;;;;;;;30.00;27.10;;;24.50;93.60;;;;;;3573758;40;20657;-58
2021/07/23 08:52:15;;;;;;;31.30;28.40;;;24.50;93.60;;;;;;3573914;40;20604;-57
2021/07/23 08:54:42;;;;;;;29.27;26.93;;;24.50;93.60;;;;;;3575113;40;20836;-58
2021/07/23 08:57:12;;;;;;;29.70;27.40;;;24.50;93.60;;;;;;3574708;40;21107;-57
2021/07/23 08:59:39;;;;;;;31.00;28.23;;;24.50;93.60;;;;;;3573739;40;20579;-58
2021/07/23 09:02:07;;;;;;;29.17;26.67;;;24.50;93.60;;;;;;3573958;40;20830;-58
2021/07/23 09:04:36;;;;;;;28.50;26.27;;;24.50;93.70;;;;;;3575526;40;20489;-58
2021/07/23 09:07:30;;;;;;;27.53;25.07;;;24.50;93.60;;;;;;3573985;40;20635;-59
2021/07/23 09:10:03;;;;;;;27.93;25.40;;;24.50;93.70;;;;;;3576282;40;20587;-57
2021/07/23 09:12:46;;;;;;;30.00;27.33;;;24.50;93.70;;;;;;3576063;40;20468;-55
2021/07/23 09:15:23;;;;;;;28.33;25.87;;;24.50;93.70;;;;;;3572775;40;20477;-60
2021/07/23 09:17:50;;;;;;;27.87;25.50;;;24.50;93.70;;;;;;3575014;40;20595;-59
2021/07/23 09:20:22;;;;;;;27.20;25.00;;;24.50;93.70;;;;;;3575169;40;20610;-58
2021/07/23 09:22:50;;;;;;;27.97;25.53;;;24.50;94.00;;;;;;3573638;40;20471;-59
2021/07/23 09:25:33;;;;;;;29.40;26.53;;;24.50;93.70;;;;;;3574061;40;20618;-56
2021/07/23 09:28:02;;;;;;;27.43;25.23;;;24.50;93.70;;;;;;3573517;40;20919;-58
2021/07/23 09:30:42;;;;;;;28.87;26.30;;;24.50;93.70;;;;;;3573142;40;20831;-59
2021/07/23 09:33:09;;;;;;;27.50;25.30;;;24.50;93.70;;;;;;3574951;40;20544;-58
2021/07/23 09:35:37;;;;;;;28.13;25.63;;;24.50;93.70;;;;;;3574198;40;20659;-58
2021/07/23 09:38:04;;;;;;;30.40;27.63;;;24.50;93.70;;;;;;3564022;40;20470;-58
2021/07/23 09:40:43;;;;;;;27.80;25.40;;;24.50;93.70;;;;;;3573969;40;20644;-59
2021/07/23 09:43:12;;;;;;;29.50;27.00;;;24.50;93.70;;;;;;3572613;40;20689;-59
2021/07/23 09:45:39;;;;;;;29.03;26.40;;;24.50;93.70;;;;;;3574157;40;20473;-58
2021/07/23 09:48:11;;;;;;;29.93;27.37;;;24.50;93.70;;;;;;3574258;40;20493;-57
2021/07/23 09:50:40;;;;;;;28.47;25.90;;;24.50;93.70;;;;;;3575631;40;20485;-59
2021/07/23 09:53:12;;;;;;;28.10;25.73;;;24.50;93.70;;;;;;3573278;40;20531;-57
2021/07/23 09:55:40;;;;;;;28.30;25.70;;;24.60;93.80;;;;;;3572670;40;20865;-58
2021/07/23 09:58:08;;;;;;;27.90;25.50;;;24.50;93.70;;;;;;3573819;39;20543;-58
2021/07/23 10:00:42;;;;;;;28.30;25.90;;;24.60;93.70;;;;;;3573283;40;20798;-59
2021/07/23 10:03:13;;;;;;;28.73;26.03;;;24.50;93.70;;;;;;3573910;40;20696;-58
2021/07/23 10:05:48;;;;;;;27.53;25.30;;;24.60;93.70;;;;;;3575918;40;20862;-59
2021/07/23 10:08:22;;;;;;;27.97;25.43;;;24.60;93.80;;;;;;3574799;40;20595;-58
2021/07/23 10:10:52;;;;;;;28.63;26.33;;;24.60;93.70;;;;;;3572597;40;20681;-57
2021/07/23 10:13:22;;;;;;;28.23;25.67;;;24.60;93.80;;;;;;3571277;40;20741;-59
2021/07/23 10:15:51;;;;;;;28.90;26.40;;;24.60;93.80;;;;;;3570402;40;21029;-57
2021/07/23 10:18:19;;;;;;;27.30;25.00;;;24.60;93.80;;;;;;3576267;40;20512;-59
2021/07/23 10:20:47;;;;;;;29.17;26.63;;;24.60;93.80;;;;;;3570243;40;20466;-59
2021/07/23 10:23:19;;;;;;;27.63;25.03;;;24.60;93.80;;;;;;3571886;40;20461;-58
2021/07/23 10:25:48;;;;;;;28.93;26.50;;;24.60;93.80;;;;;;3572500;40;20455;-58
2021/07/23 10:28:52;;;;;;;26.93;24.43;;;24.60;93.70;;;;;;3564501;40;20510;-58
2021/07/23 10:31:46;;;;;;;27.77;25.53;;;24.60;93.80;;;;;;3571045;40;21229;-59
2021/07/23 10:34:31;;;;;;;26.73;24.50;;;24.60;93.80;;;;;;3569876;40;20477;-59
2021/07/23 10:36:59;;;;;;;26.87;24.60;;;24.60;93.80;;;;;;3569009;40;20485;-58
2021/07/23 10:39:26;;;;;;;26.50;24.40;;;24.60;93.80;;;;;;3560285;40;20493;-58
2021/07/23 10:42:30;;;;;;;29.57;26.53;;;24.50;93.70;;;;;;3569056;40;20446;-59
2021/07/23 10:44:58;;;;;;;27.70;25.30;;;24.60;93.80;;;;;;3569132;40;20481;-59
2021/07/23 10:47:45;;;;;;;26.97;24.57;;;24.60;93.80;;;;;;3568186;40;20912;-59
2021/07/23 10:50:51;;;;;;;28.90;26.50;;;24.60;93.80;;;;;;3567232;40;20450;-59
2021/07/23 10:53:37;;;;;;;26.80;24.70;;;24.60;93.80;;;;;;3568602;40;20777;-59
2021/07/23 10:56:04;;;;;;;28.33;25.90;;;24.60;93.80;;;;;;3568743;40;20512;-58
2021/07/23 10:58:35;;;;;;;28.20;25.80;;;24.60;93.80;;;;;;3568592;40;21225;-59
2021/07/23 11:01:03;;;;;;;27.37;24.77;;;24.60;93.80;;;;;;3560568;40;20482;-59
2021/07/23 11:04:01;;;;;;;27.13;24.93;;;24.60;93.80;;;;;;3556969;40;20474;-57
2021/07/23 11:06:33;;;;;;;27.00;24.60;;;24.60;93.80;;;;;;3560422;40;20436;-59
2021/07/23 11:09:06;;;;;;;27.60;25.23;;;24.60;93.80;;;;;;3550330;40;21310;-59
2021/07/23 11:11:34;;;;;;;28.30;25.73;;;24.60;93.80;;;;;;3561780;40;20522;-58
2021/07/23 11:14:18;;;;;;;27.97;25.77;;;24.60;93.80;;;;;;3563348;40;20466;-58
2021/07/23 11:16:47;;;;;;;28.73;25.70;;;24.60;93.80;;;;;;3571154;40;21058;-58
2021/07/23 11:19:22;;;;;;;26.73;24.63;;;24.60;93.80;;;;;;3573347;40;20880;-59
2021/07/23 11:21:50;;;;;;;27.23;25.00;;;24.60;93.80;;;;;;3571700;40;20477;-58
2021/07/23 11:24:17;;;;;;;27.10;24.80;;;24.60;93.80;;;;;;3572136;40;20468;-59
2021/07/23 11:26:52;;;;;;;25.27;23.17;;;24.60;93.80;;;;;;3572257;40;20450;-58
2021/07/23 11:29:33;;;;;;;26.70;24.40;;;24.60;93.80;;;;;;3571548;40;20480;-59
2021/07/23 11:32:07;;;;;;;27.23;24.87;;;24.60;93.80;;;;;;3553728;40;20590;-59
2021/07/23 11:34:41;;;;;;;26.90;24.70;;;24.60;93.80;;;;;;3570191;40;20474;-58
2021/07/23 11:37:20;;;;;;;26.60;24.33;;;24.60;93.80;;;;;;3571154;40;20468;-59
2021/07/23 11:39:54;;;;;;;27.20;24.70;;;24.60;93.80;;;;;;3575217;40;20517;-61
2021/07/23 11:42:22;;;;;;;27.73;25.50;;;24.60;93.80;;;;;;3577908;40;20473;-58
2021/07/23 11:44:53;;;;;;;26.63;24.33;;;24.60;93.80;;;;;;3565004;40;20545;-58
2021/07/23 11:47:29;;;;;;;27.97;25.47;;;24.60;93.80;;;;;;3574023;40;20477;-58
2021/07/23 11:49:59;;;;;;;27.27;24.83;;;24.60;93.80;;;;;;3568160;40;20452;-58
2021/07/23 11:52:27;;;;;;;27.40;25.10;;;24.60;93.80;;;;;;3572320;40;20450;-58
2021/07/23 11:55:02;;;;;;;27.03;24.83;;;24.60;93.80;;;;;;3572558;40;20481;-57
2021/07/23 11:57:30;;;;;;;26.50;24.10;;;24.60;93.80;;;;;;3572571;40;20473;-58
2021/07/23 11:59:58;;;;;;;26.13;23.80;;;24.60;93.80;;;;;;3577276;40;20484;-59
2021/07/23 12:02:26;;;;;;;27.43;25.07;;;24.60;93.80;;;;;;3584090;40;20516;-57
2021/07/23 12:05:10;;;;;;;27.57;25.17;;;24.60;93.80;;;;;;3584845;40;20477;-56
2021/07/23 12:07:40;;;;;;;26.77;24.37;;;24.60;93.80;;;;;;3577368;40;20453;-55
2021/07/23 12:10:14;;;;;;;28.93;26.50;;;24.60;93.80;;;;;;3587499;40;20511;-53
2021/07/23 12:12:43;;;;;;;26.23;24.03;;;24.60;93.80;;;;;;3575555;40;20453;-56
2021/07/23 12:15:12;;;;;;;28.20;25.80;;;24.60;93.80;;;;;;3586575;40;20462;-56
2021/07/23 12:17:44;;;;;;;26.30;24.10;;;24.60;93.80;;;;;;3569717;40;20467;-56
2021/07/23 12:20:14;;;;;;;27.77;25.47;;;24.60;94.10;;;;;;3579463;40;20473;-56
2021/07/23 12:22:56;;;;;;;26.60;24.30;;;24.60;93.80;;;;;;3578054;40;20845;-56
2021/07/23 12:25:27;;;;;;;25.60;23.57;;;24.60;93.80;;;;;;3576815;40;20486;-57
2021/07/23 12:28:10;;;;;;;26.17;23.97;;;24.60;93.80;;;;;;3577849;40;20942;-56
2021/07/23 12:30:38;;;;;;;27.40;25.03;;;24.60;93.80;;;;;;3577933;40;20454;-57
2021/07/23 12:33:13;;;;;;;27.67;25.23;;;24.60;93.80;;;;;;3575520;40;20469;-56
2021/07/23 12:35:42;;;;;;;26.13;24.00;;;24.60;93.80;;;;;;3573631;40;20473;-54
2021/07/23 12:38:11;;;;;;;27.67;25.33;;;24.60;93.80;;;;;;3576164;40;20671;-55
2021/07/23 12:40:48;;;;;;;28.43;25.83;;;24.60;93.80;;;;;;3577075;40;20438;-54
2021/07/23 12:43:17;;;;;;;24.93;22.93;;;24.60;93.90;;;;;;3578360;40;20517;-53
2021/07/23 12:45:44;;;;;;;26.30;24.20;;;24.60;93.80;;;;;;3577299;40;20482;-52
2021/07/23 12:48:13;;;;;;;25.57;23.47;;;24.60;93.80;;;;;;3576100;40;20517;-56
2021/07/23 12:50:42;;;;;;;26.53;24.43;;;24.60;93.80;;;;;;3575918;40;20463;-55